createdAt,value
2023-01-29T00:02:07.302Z,101489.16
2023-01-29T00:04:34.236Z,101484.72
2023-01-29T00:07:00.924Z,101480.06
2023-01-29T00:09:28.703Z,101490.09
2023-01-29T00:11:55.349Z,101486.28
2023-01-29T00:14:22.113Z,101494.34
2023-01-29T00:16:48.916Z,101482.66
2023-01-29T00:19:15.681Z,101484.03
2023-01-29T00:21:42.332Z,101479.91
2023-01-29T00:24:09.118Z,101480.50
2023-01-29T00:26:35.842Z,101477.13
2023-01-29T00:29:02.728Z,101492.31
2023-01-29T00:31:29.589Z,101487.88
2023-01-29T00:33:56.683Z,101490.69
2023-01-29T00:36:24.886Z,101489.63
2023-01-29T00:39:00.623Z,101484.41
2023-01-29T00:41:51.238Z,101482.50
2023-01-29T00:44:36.852Z,101470.22
2023-01-29T00:47:04.415Z,101463.91
2023-01-29T00:49:31.068Z,101455.72
2023-01-29T00:52:16.189Z,101450.31
2023-01-29T00:54:42.774Z,101454.50
2023-01-29T00:57:09.489Z,101470.53
2023-01-29T00:59:36.150Z,101468.59
2023-01-29T01:02:21.482Z,101463.28
2023-01-29T01:04:48.216Z,101464.38
2023-01-29T01:07:14.950Z,101471.59
2023-01-29T01:10:00.044Z,101464.50
2023-01-29T01:12:28.158Z,101465.38
2023-01-29T01:14:54.866Z,101471.59
2023-01-29T01:17:21.601Z,101468.78
2023-01-29T01:19:48.415Z,101476.06
2023-01-29T01:22:15.140Z,101472.41
2023-01-29T01:24:41.926Z,101473.22
2023-01-29T01:27:08.893Z,101468.53
2023-01-29T01:29:35.703Z,101465.75
2023-01-29T01:32:02.552Z,101455.97
2023-01-29T01:34:29.250Z,101448.59
2023-01-29T01:36:56.390Z,101451.41
2023-01-29T01:39:24.870Z,101440.84
2023-01-29T01:41:55.767Z,101424.50
2023-01-29T01:45:07.974Z,101424.00
2023-01-29T01:47:34.707Z,101377.03
2023-01-29T01:50:11.191Z,101383.09
2023-01-29T01:52:42.487Z,101378.66
2023-01-29T01:55:12.283Z,101384.91
2023-01-29T01:57:42.101Z,101382.94
2023-01-29T02:00:12.905Z,101367.72
2023-01-29T02:03:00.673Z,101358.59
2023-01-29T02:05:49.076Z,101365.78
2023-01-29T02:08:39.285Z,101358.47
2023-01-29T02:11:06.814Z,101350.44
2023-01-29T02:13:33.667Z,101342.25
2023-01-29T02:16:00.330Z,101336.00
2023-01-29T02:18:27.046Z,101335.69
2023-01-29T02:21:04.075Z,101323.28
2023-01-29T02:23:58.718Z,101324.19
2023-01-29T02:26:53.980Z,101316.78
2023-01-29T02:29:36.819Z,101306.16
2023-01-29T02:32:16.987Z,101296.97
2023-01-29T02:35:10.307Z,101295.00
2023-01-29T02:37:55.777Z,101281.75
2023-01-29T02:40:34.593Z,101281.19
2023-01-29T02:43:14.980Z,101279.75
2023-01-29T02:45:52.884Z,101282.44
2023-01-29T02:48:23.857Z,101279.56
2023-01-29T02:51:05.946Z,101276.94
2023-01-29T02:53:46.430Z,101278.63
2023-01-29T02:56:17.806Z,101269.03
2023-01-29T02:59:06.085Z,101267.16
2023-01-29T03:01:43.359Z,101255.78
2023-01-29T03:04:15.241Z,101251.84
2023-01-29T03:06:53.224Z,101264.09
2023-01-29T03:09:30.018Z,101264.44
2023-01-29T03:12:03.045Z,101259.91
2023-01-29T03:14:56.724Z,101254.78
2023-01-29T03:17:30.190Z,101248.72
2023-01-29T03:19:57.791Z,101245.91
2023-01-29T03:22:26.245Z,101259.59
2023-01-29T03:25:17.002Z,101259.75
2023-01-29T03:28:08.382Z,101263.38
2023-01-29T03:30:56.679Z,101266.88
2023-01-29T03:33:26.545Z,101267.88
2023-01-29T03:36:07.043Z,101268.88
2023-01-29T03:38:33.797Z,101268.88
2023-01-29T03:41:19.492Z,101256.44
2023-01-29T03:44:09.096Z,101263.63
2023-01-29T03:46:46.616Z,101261.00
2023-01-29T03:49:39.810Z,101272.25
2023-01-29T03:52:19.978Z,101267.69
2023-01-29T03:54:59.986Z,101271.25
2023-01-29T03:57:45.692Z,101267.28
2023-01-29T04:00:38.489Z,101274.56
2023-01-29T04:03:11.863Z,101276.06
2023-01-29T04:05:46.222Z,101277.13
2023-01-29T04:08:19.930Z,101289.88
2023-01-29T04:10:48.165Z,101292.44
2023-01-29T04:13:17.890Z,101271.75
2023-01-29T04:15:50.757Z,101270.13
2023-01-29T04:18:17.404Z,101259.34
2023-01-29T04:20:44.491Z,101260.16
2023-01-29T04:23:27.478Z,101250.47
2023-01-29T04:26:37.867Z,101243.91
2023-01-29T04:29:14.017Z,101244.97
2023-01-29T04:32:13.980Z,101234.06
2023-01-29T04:35:09.307Z,101225.16
2023-01-29T04:37:56.616Z,101214.53
2023-01-29T04:40:42.333Z,101209.75
2023-01-29T04:43:38.750Z,101202.56
2023-01-29T04:46:50.622Z,101198.53
2023-01-29T04:49:35.478Z,101190.63
2023-01-29T04:52:13.179Z,101206.91
2023-01-29T04:54:50.785Z,101199.38
2023-01-29T04:57:35.666Z,101188.75
2023-01-29T05:00:28.445Z,101185.88
2023-01-29T05:02:56.782Z,101182.19
2023-01-29T05:05:23.528Z,101183.06
2023-01-29T05:07:50.688Z,101176.34
2023-01-29T05:10:20.353Z,101170.16
2023-01-29T05:12:51.679Z,101169.34
2023-01-29T05:15:24.718Z,101184.50
2023-01-29T05:17:53.879Z,101182.75
2023-01-29T05:20:21.264Z,101181.72
2023-01-29T05:22:48.796Z,101185.28
2023-01-29T05:25:21.087Z,101190.59
2023-01-29T05:28:05.962Z,101176.16
2023-01-29T05:30:38.707Z,101158.97
2023-01-29T05:33:13.620Z,101148.28
2023-01-29T05:35:40.516Z,101149.41
2023-01-29T05:38:07.647Z,101140.25
2023-01-29T05:40:34.329Z,101152.72
2023-01-29T05:43:00.986Z,101147.47
2023-01-29T05:45:27.830Z,101146.72
2023-01-29T05:47:58.714Z,101144.94
2023-01-29T05:50:27.158Z,101138.53
2023-01-29T05:53:01.236Z,101127.75
2023-01-29T05:55:31.684Z,101134.88
2023-01-29T05:57:58.512Z,101129.72
2023-01-29T06:00:25.181Z,101126.09
2023-01-29T06:02:51.873Z,101122.50
2023-01-29T06:05:18.593Z,101119.09
2023-01-29T06:07:45.524Z,101110.31
2023-01-29T06:10:17.343Z,101104.34
2023-01-29T06:12:44.721Z,101099.91
2023-01-29T06:15:12.886Z,101099.84
2023-01-29T06:17:39.749Z,101101.66
2023-01-29T06:20:07.061Z,101108.63
2023-01-29T06:22:34.172Z,101093.28
2023-01-29T06:25:00.822Z,101098.53
2023-01-29T06:27:27.596Z,101087.09
2023-01-29T06:29:54.251Z,101079.69
2023-01-29T06:32:21.058Z,101082.31
2023-01-29T06:34:49.687Z,101079.78
2023-01-29T06:37:16.593Z,101069.53
2023-01-29T06:39:43.206Z,101060.66
2023-01-29T06:42:11.161Z,101057.00
2023-01-29T06:44:37.932Z,101049.66
2023-01-29T06:47:04.705Z,101047.75
2023-01-29T06:49:31.671Z,101046.81
2023-01-29T06:51:58.495Z,101046.16
2023-01-29T06:54:25.220Z,101048.78
2023-01-29T06:56:52.167Z,101045.94
2023-01-29T06:59:18.823Z,101039.75
2023-01-29T07:01:45.807Z,101033.44
2023-01-29T07:04:12.547Z,101027.31
2023-01-29T07:06:39.750Z,101025.66
2023-01-29T07:09:06.462Z,101026.22
2023-01-29T07:11:35.147Z,101021.88
2023-01-29T07:14:01.826Z,101027.97
2023-01-29T07:16:28.673Z,101019.97
2023-01-29T07:18:55.678Z,101030.75
2023-01-29T07:21:22.395Z,101031.03
2023-01-29T07:23:49.080Z,101011.59
2023-01-29T07:26:16.065Z,101005.25
2023-01-29T07:28:42.801Z,101002.66
2023-01-29T07:31:13.411Z,101011.53
2023-01-29T07:33:40.181Z,101013.78
2023-01-29T07:36:11.046Z,101011.03
2023-01-29T07:38:37.717Z,101007.81
2023-01-29T07:41:04.522Z,101010.94
2023-01-29T07:43:31.259Z,101004.25
2023-01-29T07:46:02.443Z,100997.19
2023-01-29T07:48:29.336Z,100997.78
2023-01-29T07:50:57.179Z,100999.31
2023-01-29T07:53:24.048Z,101000.59
2023-01-29T07:55:51.139Z,101000.69
2023-01-29T07:58:17.901Z,101010.38
2023-01-29T08:00:45.252Z,101001.50
2023-01-29T08:03:14.567Z,101001.50
2023-01-29T08:05:41.209Z,101003.44
2023-01-29T08:08:08.434Z,101011.50
2023-01-29T08:10:36.379Z,101007.97
2023-01-29T08:13:04.835Z,101022.13
2023-01-29T08:15:32.215Z,101013.50
2023-01-29T08:17:59.145Z,101019.59
2023-01-29T08:20:26.324Z,101008.91
2023-01-29T08:23:04.595Z,101012.31
2023-01-29T08:25:31.860Z,101009.63
2023-01-29T08:27:59.358Z,101000.75
2023-01-29T08:30:31.744Z,101007.97
2023-01-29T08:32:58.980Z,101010.50
2023-01-29T08:35:26.509Z,101011.16
2023-01-29T08:37:59.419Z,101004.09
2023-01-29T08:40:28.348Z,101012.13
2023-01-29T08:43:02.051Z,101000.56
2023-01-29T08:45:30.312Z,101000.31
2023-01-29T08:47:57.094Z,101001.22
2023-01-29T08:50:24.327Z,100999.38
2023-01-29T08:52:51.251Z,100982.38
2023-01-29T08:55:18.435Z,100976.19
2023-01-29T08:57:45.269Z,100965.72
2023-01-29T09:00:12.698Z,100971.75
2023-01-29T09:02:39.496Z,100968.25
2023-01-29T09:05:10.371Z,100960.09
2023-01-29T09:07:37.635Z,100961.19
2023-01-29T09:10:04.665Z,100942.59
2023-01-29T09:12:31.339Z,100940.16
2023-01-29T09:14:58.073Z,100939.09
2023-01-29T09:17:24.800Z,100936.59
2023-01-29T09:19:53.066Z,100947.22
2023-01-29T09:22:20.593Z,100935.59
2023-01-29T09:24:47.301Z,100926.78
2023-01-29T09:27:13.982Z,100924.09
2023-01-29T09:29:40.646Z,100922.00
2023-01-29T09:32:07.519Z,100914.59
2023-01-29T09:34:34.739Z,100913.03
2023-01-29T09:37:01.618Z,100913.03
2023-01-29T09:39:28.427Z,100915.53
2023-01-29T09:42:24.400Z,100916.34
2023-01-29T09:44:54.173Z,100906.56
2023-01-29T09:47:25.560Z,100911.88
2023-01-29T09:50:09.599Z,100908.41
2023-01-29T09:52:41.137Z,100916.47
2023-01-29T09:55:23.535Z,100909.91
2023-01-29T09:57:54.668Z,100900.84
2023-01-29T10:00:48.281Z,100902.88
2023-01-29T10:03:50.927Z,100893.75
2023-01-29T10:06:32.748Z,100885.69
2023-01-29T10:09:18.957Z,100876.66
2023-01-29T10:11:59.220Z,100881.03
2023-01-29T10:14:42.915Z,100877.25
2023-01-29T10:17:34.323Z,100875.66
2023-01-29T10:20:19.899Z,100869.34
2023-01-29T10:22:52.385Z,100859.50
2023-01-29T10:25:21.463Z,100849.59
2023-01-29T10:27:54.636Z,100852.72
2023-01-29T10:30:28.695Z,100846.63
2023-01-29T10:32:59.555Z,100845.13
2023-01-29T10:35:39.333Z,100844.00
2023-01-29T10:38:39.310Z,100832.34
2023-01-29T10:41:21.255Z,100820.59
2023-01-29T10:44:03.100Z,100823.75
2023-01-29T10:46:55.319Z,100806.50
2023-01-29T10:49:40.624Z,100805.06
2023-01-29T10:52:33.523Z,100797.47
2023-01-29T10:55:35.384Z,100786.59
2023-01-29T10:58:15.342Z,100790.81
2023-01-29T11:00:42.655Z,100791.78
2023-01-29T11:03:27.643Z,100777.53
2023-01-29T11:06:04.255Z,100773.56
2023-01-29T11:08:44.123Z,100770.41
2023-01-29T11:11:17.401Z,100757.47
2023-01-29T11:14:07.242Z,100763.66
2023-01-29T11:16:42.909Z,100754.25
2023-01-29T11:19:10.638Z,100756.00
2023-01-29T11:21:59.928Z,100749.28
2023-01-29T11:24:27.737Z,100745.53
2023-01-29T11:26:59.887Z,100736.19
2023-01-29T11:29:44.231Z,100721.28
2023-01-29T11:32:30.057Z,100718.13
2023-01-29T11:34:59.353Z,100709.69
2023-01-29T11:37:37.968Z,100705.09
2023-01-29T11:40:32.687Z,100713.69
2023-01-29T11:43:19.301Z,100699.59
2023-01-29T11:45:47.936Z,100707.78
2023-01-29T11:48:18.043Z,100697.53
2023-01-29T11:50:52.378Z,100699.38
2023-01-29T11:53:34.803Z,100689.38
2023-01-29T11:56:05.997Z,100684.06
2023-01-29T11:58:35.584Z,100686.41
2023-01-29T12:01:03.396Z,100680.34
2023-01-29T12:03:44.565Z,100685.47
2023-01-29T12:06:18.636Z,100684.78
2023-01-29T12:08:54.944Z,100685.56
2023-01-29T12:11:27.434Z,100673.69
2023-01-29T12:14:05.981Z,100678.81
2023-01-29T12:16:38.438Z,100713.34
2023-01-29T12:19:05.098Z,100716.03
2023-01-29T12:22:15.199Z,100707.00
2023-01-29T12:24:48.025Z,100713.44
2023-01-29T12:27:22.454Z,100714.47
2023-01-29T12:29:52.565Z,100710.47
2023-01-29T12:32:47.237Z,100701.78
2023-01-29T12:35:21.862Z,100700.47
2023-01-29T12:37:53.608Z,100703.78
2023-01-29T12:40:25.159Z,100704.31
2023-01-29T12:42:57.802Z,100688.31
2023-01-29T12:45:28.335Z,100690.41
2023-01-29T12:47:59.201Z,100690.72
2023-01-29T12:50:46.252Z,100701.81
2023-01-29T12:53:57.262Z,100717.19
2023-01-29T12:56:32.511Z,100701.09
2023-01-29T12:59:01.767Z,100714.56
2023-01-29T13:01:39.161Z,100718.63
2023-01-29T13:04:16.532Z,100709.34
2023-01-29T13:06:54.256Z,100706.81
2023-01-29T13:09:26.758Z,100701.69
2023-01-29T13:12:00.809Z,100700.41
2023-01-29T13:14:40.724Z,100699.28
2023-01-29T13:17:21.428Z,100698.56
2023-01-29T13:19:52.709Z,100699.28
2023-01-29T13:22:31.938Z,100696.66
2023-01-29T13:25:05.078Z,100691.53
2023-01-29T13:27:34.831Z,100694.22
2023-01-29T13:30:02.046Z,100688.75
2023-01-29T13:32:35.020Z,100680.84
2023-01-29T13:35:12.227Z,100684.59
2023-01-29T13:37:54.284Z,100673.97
2023-01-29T13:40:30.200Z,100667.69
2023-01-29T13:43:00.225Z,100665.13
2023-01-29T13:45:43.536Z,100652.66
2023-01-29T13:48:10.429Z,100649.97
2023-01-29T13:50:44.431Z,100642.53
2023-01-29T13:53:24.400Z,100636.97
2023-01-29T13:55:51.158Z,100634.72
2023-01-29T13:58:43.337Z,100624.75
2023-01-29T14:01:09.953Z,100618.41
2023-01-29T14:04:04.198Z,100622.38
2023-01-29T14:06:38.860Z,100612.84
2023-01-29T14:09:37.218Z,100615.56
2023-01-29T14:12:04.915Z,100611.13
2023-01-29T14:15:21.545Z,100619.09
2023-01-29T14:18:14.634Z,100602.31
2023-01-29T14:20:52.811Z,100617.44
2023-01-29T14:23:31.117Z,100603.28
2023-01-29T14:26:02.663Z,100595.97
2023-01-29T14:28:32.245Z,100585.31
2023-01-29T14:30:59.740Z,100593.22
2023-01-29T14:33:41.688Z,100582.28
2023-01-29T14:36:14.867Z,100581.50
2023-01-29T14:38:52.554Z,100578.66
2023-01-29T14:41:30.885Z,100578.03
2023-01-29T14:44:34.971Z,100576.66
2023-01-29T14:47:01.738Z,100567.72
2023-01-29T14:49:54.940Z,100560.75
2023-01-29T14:52:43.193Z,100554.09
2023-01-29T14:55:29.607Z,100557.19
2023-01-29T14:57:58.305Z,100560.66
2023-01-29T15:00:30.335Z,100547.91
2023-01-29T15:03:02.017Z,100546.25
2023-01-29T15:05:37.111Z,100546.19
2023-01-29T15:08:07.303Z,100539.06
2023-01-29T15:10:41.321Z,100536.44
2023-01-29T15:13:32.668Z,100534.47
2023-01-29T15:16:14.764Z,100530.19
2023-01-29T15:18:43.212Z,100522.91
2023-01-29T15:21:13.122Z,100515.00
2023-01-29T15:23:44.516Z,100507.72
2023-01-29T15:26:17.361Z,100499.47
2023-01-29T15:28:47.201Z,100497.56
2023-01-29T15:31:18.799Z,100485.72
2023-01-29T15:33:47.406Z,100491.94
2023-01-29T15:36:20.857Z,100494.53
2023-01-29T15:38:47.572Z,100497.03
2023-01-29T15:41:24.219Z,100494.53
2023-01-29T15:43:57.965Z,100479.94
2023-01-29T15:46:28.256Z,100482.91
2023-01-29T15:48:59.361Z,100486.97
2023-01-29T15:51:28.003Z,100477.84
2023-01-29T15:54:04.529Z,100475.84
2023-01-29T15:56:38.386Z,100475.69
2023-01-29T15:59:09.746Z,100464.13
2023-01-29T16:01:36.781Z,100461.34
2023-01-29T16:04:04.510Z,100466.81
2023-01-29T16:06:37.380Z,100462.22
2023-01-29T16:09:05.519Z,100462.13
2023-01-29T16:11:34.142Z,100441.63
2023-01-29T16:14:02.907Z,100445.19
2023-01-29T16:16:29.749Z,100453.06
2023-01-29T16:19:01.035Z,100436.06
2023-01-29T16:21:36.603Z,100432.50
2023-01-29T16:24:11.879Z,100427.09
2023-01-29T16:26:44.982Z,100432.31
2023-01-29T16:29:14.817Z,100414.53
2023-01-29T16:31:44.570Z,100417.22
2023-01-29T16:34:23.258Z,100415.47
2023-01-29T16:36:50.720Z,100408.84
2023-01-29T16:39:28.202Z,100405.66
2023-01-29T16:42:10.783Z,100394.63
2023-01-29T16:44:39.756Z,100391.06
2023-01-29T16:47:37.401Z,100398.19
2023-01-29T16:50:46.340Z,100390.97
2023-01-29T16:53:23.377Z,100386.72
2023-01-29T16:55:52.488Z,100378.44
2023-01-29T16:58:22.758Z,100384.03
2023-01-29T17:01:01.633Z,100382.09
2023-01-29T17:03:32.548Z,100370.38
2023-01-29T17:06:08.604Z,100376.53
2023-01-29T17:08:36.151Z,100374.72
2023-01-29T17:11:03.264Z,100368.03
2023-01-29T17:13:37.375Z,100376.91
2023-01-29T17:16:16.219Z,100365.47
2023-01-29T17:18:42.976Z,100359.19
2023-01-29T17:21:09.687Z,100370.84
2023-01-29T17:23:36.735Z,100372.66
2023-01-29T17:26:06.883Z,100359.28
2023-01-29T17:28:33.952Z,100348.97
2023-01-29T17:31:06.582Z,100348.97
2023-01-29T17:33:35.956Z,100343.69
2023-01-29T17:36:02.932Z,100323.59
2023-01-29T17:38:29.678Z,100317.25
2023-01-29T17:41:25.774Z,100310.59
2023-01-29T17:43:52.482Z,100308.06
2023-01-29T17:46:20.453Z,100306.44
2023-01-29T17:48:49.266Z,100300.88
2023-01-29T17:51:18.007Z,100311.63
2023-01-29T17:53:46.639Z,100312.97
2023-01-29T17:56:21.383Z,100308.53
2023-01-29T17:58:48.096Z,100303.41
2023-01-29T18:01:14.716Z,100307.56
2023-01-29T18:03:41.652Z,100300.47
2023-01-29T18:06:09.903Z,100303.22
2023-01-29T18:08:39.262Z,100293.59
2023-01-29T18:11:06.342Z,100288.13
2023-01-29T18:13:35.417Z,100286.47
2023-01-29T18:16:02.397Z,100273.03
2023-01-29T18:18:29.135Z,100263.88
2023-01-29T18:20:55.821Z,100259.16
2023-01-29T18:23:22.842Z,100254.13
2023-01-29T18:25:49.544Z,100257.78
2023-01-29T18:28:17.703Z,100246.84
2023-01-29T18:30:47.826Z,100243.66
2023-01-29T18:33:16.206Z,100229.16
2023-01-29T18:35:50.214Z,100226.44
2023-01-29T18:38:17.453Z,100221.00
2023-01-29T18:40:44.356Z,100219.25
2023-01-29T18:43:11.051Z,100218.56
2023-01-29T18:45:37.734Z,100196.97
2023-01-29T18:48:05.154Z,100209.34
2023-01-29T18:50:32.217Z,100206.94
2023-01-29T18:52:59.013Z,100200.78
2023-01-29T18:55:28.451Z,100196.19
2023-01-29T18:58:27.870Z,100180.81
2023-01-29T19:00:42.884Z,100166.59
2023-01-29T19:03:10.577Z,100166.31
2023-01-29T19:05:37.378Z,100162.75
2023-01-29T19:08:05.338Z,100154.94
2023-01-29T19:10:32.622Z,100155.91
2023-01-29T19:12:59.370Z,100153.81
2023-01-29T19:15:26.438Z,100153.16
2023-01-29T19:17:53.939Z,100148.53
2023-01-29T19:20:20.651Z,100150.34
2023-01-29T19:22:48.095Z,100151.03
2023-01-29T19:25:16.029Z,100149.31
2023-01-29T19:27:43.123Z,100157.00
2023-01-29T19:30:12.840Z,100149.31
2023-01-29T19:32:40.822Z,100152.00
2023-01-29T19:35:07.884Z,100146.13
2023-01-29T19:37:34.692Z,100134.34
2023-01-29T19:40:01.468Z,100125.38
2023-01-29T19:42:28.257Z,100128.97
2023-01-29T19:44:54.902Z,100134.16
2023-01-29T19:47:21.879Z,100148.47
2023-01-29T19:49:48.684Z,100147.41
2023-01-29T19:52:49.751Z,100133.00
2023-01-29T19:55:17.396Z,100132.50
2023-01-29T19:57:44.406Z,100142.69
2023-01-29T20:00:12.198Z,100136.75
2023-01-29T20:02:39.005Z,100139.44
2023-01-29T20:05:07.938Z,100135.72
2023-01-29T20:07:36.093Z,100143.00
2023-01-29T20:10:03.512Z,100138.78
2023-01-29T20:12:30.453Z,100140.78
2023-01-29T20:14:57.215Z,100127.06
2023-01-29T20:17:23.949Z,100126.75
2023-01-29T20:19:50.651Z,100127.72
2023-01-29T20:22:17.446Z,100139.56
2023-01-29T20:24:44.181Z,100139.44
2023-01-29T20:27:11.209Z,100134.16
2023-01-29T20:29:41.092Z,100121.47
2023-01-29T20:32:08.808Z,100115.13
2023-01-29T20:34:36.141Z,100108.72
2023-01-29T20:37:03.166Z,100100.63
2023-01-29T20:39:30.364Z,100104.88
2023-01-29T20:41:57.323Z,100095.06
2023-01-29T20:44:25.080Z,100103.78
2023-01-29T20:46:51.966Z,100107.44
2023-01-29T20:49:19.276Z,100107.63
2023-01-29T20:51:46.490Z,100096.69
2023-01-29T20:54:13.334Z,100084.28
2023-01-29T20:56:45.773Z,100080.63
2023-01-29T20:59:14.116Z,100091.28
2023-01-29T21:01:41.860Z,100077.25
2023-01-29T21:04:09.018Z,100034.38
2023-01-29T21:06:35.714Z,100022.66
2023-01-29T21:09:02.501Z,100020.16
2023-01-29T21:11:29.230Z,100016.31
2023-01-29T21:13:57.832Z,100009.28
2023-01-29T21:16:26.357Z,100015.53
2023-01-29T21:18:59.750Z,99988.34
2023-01-29T21:21:26.853Z,100010.72
2023-01-29T21:23:53.774Z,100006.88
2023-01-29T21:26:20.787Z,99989.56
2023-01-29T21:28:47.478Z,99987.94
2023-01-29T21:31:16.233Z,100002.16
2023-01-29T21:33:43.856Z,100010.81
2023-01-29T21:36:11.193Z,99995.50
2023-01-29T21:38:38.820Z,99966.84
2023-01-29T21:41:08.831Z,99965.81
2023-01-29T21:43:36.404Z,99957.53
2023-01-29T21:46:06.033Z,99956.75
2023-01-29T21:48:32.725Z,99966.38
2023-01-29T21:50:59.750Z,99979.28
2023-01-29T21:53:26.479Z,99969.91
2023-01-29T21:55:59.253Z,99988.00
2023-01-29T21:58:25.976Z,99979.47
2023-01-29T22:00:52.723Z,99998.31
2023-01-29T22:03:19.459Z,99989.16
2023-01-29T22:05:46.309Z,100070.84
2023-01-29T22:08:12.959Z,100058.00
2023-01-29T22:10:39.826Z,100075.25
2023-01-29T22:13:06.506Z,100077.75
2023-01-29T22:15:33.355Z,100063.50
2023-01-29T22:18:00.094Z,100052.44
2023-01-29T22:20:30.749Z,100058.00
2023-01-29T22:23:00.801Z,100048.88
2023-01-29T22:25:28.015Z,100043.38
2023-01-29T22:27:54.919Z,100039.56
2023-01-29T22:30:23.350Z,100043.31
2023-01-29T22:32:50.989Z,100035.13
2023-01-29T22:35:17.727Z,100047.25
2023-01-29T22:37:45.175Z,100027.41
2023-01-29T22:40:12.984Z,100032.25
2023-01-29T22:42:39.830Z,100023.97
2023-01-29T22:45:08.133Z,100022.03
2023-01-29T22:47:34.996Z,100014.72
2023-01-29T22:50:01.743Z,100003.72
2023-01-29T22:52:28.420Z,100006.72
2023-01-29T22:54:55.223Z,100014.78
2023-01-29T22:57:21.953Z,100002.84
2023-01-29T22:59:48.557Z,100019.91
2023-01-29T23:02:15.350Z,100000.91
2023-01-29T23:04:42.313Z,99994.31
2023-01-29T23:07:09.115Z,100007.28
2023-01-29T23:09:35.760Z,99996.63
2023-01-29T23:12:02.482Z,99980.44
2023-01-29T23:14:29.289Z,99983.69
2023-01-29T23:16:55.991Z,99975.69
2023-01-29T23:19:22.644Z,99986.69
2023-01-29T23:21:49.619Z,99979.16
2023-01-29T23:24:16.422Z,99986.59
2023-01-29T23:27:01.751Z,99983.59
2023-01-29T23:29:28.543Z,99974.84
2023-01-29T23:31:55.352Z,99968.50
2023-01-29T23:34:22.046Z,99964.63
2023-01-29T23:36:48.844Z,99934.31
2023-01-29T23:39:15.672Z,99945.09
2023-01-29T23:41:43.918Z,99945.00
2023-01-29T23:44:10.587Z,99940.25
2023-01-29T23:46:37.280Z,99936.03
2023-01-29T23:49:04.022Z,99922.50
2023-01-29T23:51:30.708Z,99914.19
2023-01-29T23:53:57.516Z,99897.28
2023-01-29T23:56:24.562Z,99889.75
2023-01-29T23:58:55.836Z,99899.00
